sensor_id;sensor_type;location;lat;lon;timestamp;temperature;humidity
25937;DHT22;13733;51.178;4.450;2023-07-13T00:02:16;17.60;99.90
25937;DHT22;13733;51.178;4.450;2023-07-13T00:04:41;17.60;99.90
25937;DHT22;13733;51.178;4.450;2023-07-13T00:07:08;17.70;99.90
25937;DHT22;13733;51.178;4.450;2023-07-13T00:09:34;17.70;99.90
25937;DHT22;13733;51.178;4.450;2023-07-13T00:12:01;17.70;99.90
25937;DHT22;13733;51.178;4.450;2023-07-13T00:14:28;17.60;99.90
25937;DHT22;13733;51.178;4.450;2023-07-13T00:16:55;17.60;99.90
25937;DHT22;13733;51.178;4.450;2023-07-13T00:19:21;17.70;99.90
25937;DHT22;13733;51.178;4.450;2023-07-13T00:21:47;17.50;99.90
25937;DHT22;13733;51.178;4.450;2023-07-13T00:24:15;17.50;99.90
25937;DHT22;13733;51.178;4.450;2023-07-13T00:26:42;17.50;99.90
25937;DHT22;13733;51.178;4.450;2023-07-13T00:29:11;17.60;99.90
25937;DHT22;13733;51.178;4.450;2023-07-13T00:31:37;17.50;99.90
25937;DHT22;13733;51.178;4.450;2023-07-13T00:34:04;17.40;99.90
25937;DHT22;13733;51.178;4.450;2023-07-13T00:36:30;17.40;99.90
25937;DHT22;13733;51.178;4.450;2023-07-13T00:38:57;17.40;99.90
25937;DHT22;13733;51.178;4.450;2023-07-13T00:41:23;17.50;99.90
25937;DHT22;13733;51.178;4.450;2023-07-13T00:43:49;17.40;99.90
25937;DHT22;13733;51.178;4.450;2023-07-13T00:46:22;17.50;99.90
25937;DHT22;13733;51.178;4.450;2023-07-13T00:48:50;17.40;99.90
25937;DHT22;13733;51.178;4.450;2023-07-13T00:51:21;17.30;99.90
25937;DHT22;13733;51.178;4.450;2023-07-13T00:53:47;17.30;99.90
25937;DHT22;13733;51.178;4.450;2023-07-13T00:56:13;17.30;99.90
25937;DHT22;13733;51.178;4.450;2023-07-13T00:58:39;17.30;99.90
25937;DHT22;13733;51.178;4.450;2023-07-13T01:01:05;17.20;99.90
25937;DHT22;13733;51.178;4.450;2023-07-13T01:03:30;17.10;99.90
25937;DHT22;13733;51.178;4.450;2023-07-13T01:05:56;17.10;99.90
25937;DHT22;13733;51.178;4.450;2023-07-13T01:08:23;17.00;99.90
25937;DHT22;13733;51.178;4.450;2023-07-13T01:10:56;16.90;99.90
25937;DHT22;13733;51.178;4.450;2023-07-13T01:13:22;17.10;99.90
25937;DHT22;13733;51.178;4.450;2023-07-13T01:15:51;17.10;99.90
25937;DHT22;13733;51.178;4.450;2023-07-13T01:18:23;17.00;99.90
25937;DHT22;13733;51.178;4.450;2023-07-13T01:20:58;17.10;99.90
25937;DHT22;13733;51.178;4.450;2023-07-13T01:23:26;17.00;99.90
25937;DHT22;13733;51.178;4.450;2023-07-13T01:25:54;16.90;99.90
25937;DHT22;13733;51.178;4.450;2023-07-13T01:28:22;16.90;99.90
25937;DHT22;13733;51.178;4.450;2023-07-13T01:30:48;16.90;99.90
25937;DHT22;13733;51.178;4.450;2023-07-13T01:33:17;16.80;99.90
25937;DHT22;13733;51.178;4.450;2023-07-13T01:35:45;17.00;99.90
25937;DHT22;13733;51.178;4.450;2023-07-13T01:38:13;17.00;99.90
25937;DHT22;13733;51.178;4.450;2023-07-13T01:40:41;17.00;99.90
25937;DHT22;13733;51.178;4.450;2023-07-13T01:43:07;16.90;99.90
25937;DHT22;13733;51.178;4.450;2023-07-13T01:45:33;16.80;99.90
25937;DHT22;13733;51.178;4.450;2023-07-13T01:47:59;16.80;99.90
25937;DHT22;13733;51.178;4.450;2023-07-13T01:50:25;16.80;99.90
25937;DHT22;13733;51.178;4.450;2023-07-13T01:52:52;16.60;99.90
25937;DHT22;13733;51.178;4.450;2023-07-13T01:55:19;16.70;99.90
25937;DHT22;13733;51.178;4.450;2023-07-13T01:57:45;16.70;99.90
25937;DHT22;13733;51.178;4.450;2023-07-13T02:00:13;16.70;99.90
25937;DHT22;13733;51.178;4.450;2023-07-13T02:02:42;16.60;99.90
25937;DHT22;13733;51.178;4.450;2023-07-13T02:05:09;16.60;99.90
25937;DHT22;13733;51.178;4.450;2023-07-13T02:07:35;16.50;99.90
25937;DHT22;13733;51.178;4.450;2023-07-13T02:10:03;16.70;99.90
25937;DHT22;13733;51.178;4.450;2023-07-13T02:12:29;16.70;99.90
25937;DHT22;13733;51.178;4.450;2023-07-13T02:14:54;16.60;99.90
25937;DHT22;13733;51.178;4.450;2023-07-13T02:17:20;16.50;99.90
25937;DHT22;13733;51.178;4.450;2023-07-13T02:19:46;16.40;99.90
25937;DHT22;13733;51.178;4.450;2023-07-13T02:22:11;16.30;99.90
25937;DHT22;13733;51.178;4.450;2023-07-13T02:24:37;16.30;99.90
25937;DHT22;13733;51.178;4.450;2023-07-13T02:27:05;16.30;99.90
25937;DHT22;13733;51.178;4.450;2023-07-13T02:29:31;16.20;99.90
25937;DHT22;13733;51.178;4.450;2023-07-13T02:31:57;16.30;99.90
25937;DHT22;13733;51.178;4.450;2023-07-13T02:34:23;16.20;99.90
25937;DHT22;13733;51.178;4.450;2023-07-13T02:36:49;16.20;99.90
25937;DHT22;13733;51.178;4.450;2023-07-13T02:39:14;16.20;99.90
25937;DHT22;13733;51.178;4.450;2023-07-13T02:41:41;16.30;99.90
25937;DHT22;13733;51.178;4.450;2023-07-13T02:44:07;16.30;99.90
25937;DHT22;13733;51.178;4.450;2023-07-13T02:46:35;16.40;99.90
25937;DHT22;13733;51.178;4.450;2023-07-13T02:49:03;16.40;99.90
25937;DHT22;13733;51.178;4.450;2023-07-13T02:51:29;16.50;99.90
25937;DHT22;13733;51.178;4.450;2023-07-13T02:53:56;16.50;99.90
25937;DHT22;13733;51.178;4.450;2023-07-13T02:56:23;16.60;99.90
25937;DHT22;13733;51.178;4.450;2023-07-13T02:58:51;16.50;99.90
25937;DHT22;13733;51.178;4.450;2023-07-13T03:01:17;16.70;99.90
25937;DHT22;13733;51.178;4.450;2023-07-13T03:03:45;16.70;99.90
25937;DHT22;13733;51.178;4.450;2023-07-13T03:06:13;16.80;99.90
25937;DHT22;13733;51.178;4.450;2023-07-13T03:08:47;16.90;99.90
25937;DHT22;13733;51.178;4.450;2023-07-13T03:11:17;16.90;99.90
25937;DHT22;13733;51.178;4.450;2023-07-13T03:13:44;16.90;99.90
25937;DHT22;13733;51.178;4.450;2023-07-13T03:16:13;16.70;99.90
25937;DHT22;13733;51.178;4.450;2023-07-13T03:18:42;16.70;99.90
25937;DHT22;13733;51.178;4.450;2023-07-13T03:21:10;16.70;99.90
25937;DHT22;13733;51.178;4.450;2023-07-13T03:23:35;16.60;99.90
25937;DHT22;13733;51.178;4.450;2023-07-13T03:26:12;16.70;99.90
25937;DHT22;13733;51.178;4.450;2023-07-13T03:28:40;16.70;99.90
25937;DHT22;13733;51.178;4.450;2023-07-13T03:31:11;16.90;99.90
25937;DHT22;13733;51.178;4.450;2023-07-13T03:33:37;16.80;99.90
25937;DHT22;13733;51.178;4.450;2023-07-13T03:36:05;16.90;99.90
25937;DHT22;13733;51.178;4.450;2023-07-13T03:38:31;16.90;99.90
25937;DHT22;13733;51.178;4.450;2023-07-13T03:40:58;17.00;99.90
25937;DHT22;13733;51.178;4.450;2023-07-13T03:43:25;17.00;99.90
25937;DHT22;13733;51.178;4.450;2023-07-13T03:45:52;17.10;99.90
25937;DHT22;13733;51.178;4.450;2023-07-13T03:48:18;17.20;99.90
25937;DHT22;13733;51.178;4.450;2023-07-13T03:50:44;17.10;99.90
25937;DHT22;13733;51.178;4.450;2023-07-13T03:53:10;16.80;99.90
25937;DHT22;13733;51.178;4.450;2023-07-13T03:55:36;16.90;99.90
25937;DHT22;13733;51.178;4.450;2023-07-13T03:58:28;17.00;99.90
25937;DHT22;13733;51.178;4.450;2023-07-13T04:01:00;16.90;99.90
25937;DHT22;13733;51.178;4.450;2023-07-13T04:03:26;16.90;99.90
25937;DHT22;13733;51.178;4.450;2023-07-13T04:05:55;17.10;99.90
25937;DHT22;13733;51.178;4.450;2023-07-13T04:08:29;17.00;99.90
25937;DHT22;13733;51.178;4.450;2023-07-13T04:10:56;17.20;99.90
25937;DHT22;13733;51.178;4.450;2023-07-13T04:13:23;17.20;99.90
25937;DHT22;13733;51.178;4.450;2023-07-13T04:15:50;17.20;99.90
25937;DHT22;13733;51.178;4.450;2023-07-13T04:18:16;17.30;99.90
25937;DHT22;13733;51.178;4.450;2023-07-13T04:20:42;17.20;99.90
25937;DHT22;13733;51.178;4.450;2023-07-13T04:23:07;17.30;99.90
25937;DHT22;13733;51.178;4.450;2023-07-13T04:25:33;17.40;99.90
25937;DHT22;13733;51.178;4.450;2023-07-13T04:27:59;17.30;99.90
25937;DHT22;13733;51.178;4.450;2023-07-13T04:30:25;17.20;99.90
25937;DHT22;13733;51.178;4.450;2023-07-13T04:32:52;17.00;99.90
25937;DHT22;13733;51.178;4.450;2023-07-13T04:35:20;16.80;99.90
25937;DHT22;13733;51.178;4.450;2023-07-13T04:37:49;16.70;99.90
25937;DHT22;13733;51.178;4.450;2023-07-13T04:40:19;16.70;99.90
25937;DHT22;13733;51.178;4.450;2023-07-13T04:42:46;16.90;99.90
25937;DHT22;13733;51.178;4.450;2023-07-13T04:45:13;17.10;99.90
25937;DHT22;13733;51.178;4.450;2023-07-13T04:47:39;16.90;99.90
25937;DHT22;13733;51.178;4.450;2023-07-13T04:50:06;17.10;99.90
25937;DHT22;13733;51.178;4.450;2023-07-13T04:52:32;17.30;99.90
25937;DHT22;13733;51.178;4.450;2023-07-13T04:54:59;17.40;99.90
25937;DHT22;13733;51.178;4.450;2023-07-13T04:57:26;17.10;99.90
25937;DHT22;13733;51.178;4.450;2023-07-13T04:59:52;17.00;99.90
25937;DHT22;13733;51.178;4.450;2023-07-13T05:02:18;17.10;99.90
25937;DHT22;13733;51.178;4.450;2023-07-13T05:04:49;17.10;99.90
25937;DHT22;13733;51.178;4.450;2023-07-13T05:07:15;17.00;99.90
25937;DHT22;13733;51.178;4.450;2023-07-13T05:09:41;17.00;99.90
25937;DHT22;13733;51.178;4.450;2023-07-13T05:12:08;16.90;99.90
25937;DHT22;13733;51.178;4.450;2023-07-13T05:14:33;17.00;99.90
25937;DHT22;13733;51.178;4.450;2023-07-13T05:16:59;17.10;99.90
25937;DHT22;13733;51.178;4.450;2023-07-13T05:19:25;17.00;99.90
25937;DHT22;13733;51.178;4.450;2023-07-13T05:21:51;17.20;99.90
25937;DHT22;13733;51.178;4.450;2023-07-13T05:24:16;17.20;99.90
25937;DHT22;13733;51.178;4.450;2023-07-13T05:26:42;17.40;99.90
25937;DHT22;13733;51.178;4.450;2023-07-13T05:29:08;17.50;99.90
25937;DHT22;13733;51.178;4.450;2023-07-13T05:31:33;17.70;99.90
25937;DHT22;13733;51.178;4.450;2023-07-13T05:33:59;17.80;99.90
25937;DHT22;13733;51.178;4.450;2023-07-13T05:36:25;17.80;99.90
25937;DHT22;13733;51.178;4.450;2023-07-13T05:38:51;17.90;99.90
25937;DHT22;13733;51.178;4.450;2023-07-13T05:41:17;17.80;99.90
25937;DHT22;13733;51.178;4.450;2023-07-13T05:43:42;17.70;99.90
25937;DHT22;13733;51.178;4.450;2023-07-13T05:46:08;17.50;99.90
25937;DHT22;13733;51.178;4.450;2023-07-13T05:48:34;17.50;99.90
25937;DHT22;13733;51.178;4.450;2023-07-13T05:51:01;17.40;99.90
25937;DHT22;13733;51.178;4.450;2023-07-13T05:53:27;17.50;99.90
25937;DHT22;13733;51.178;4.450;2023-07-13T05:55:54;17.70;99.90
25937;DHT22;13733;51.178;4.450;2023-07-13T05:58:20;17.80;99.90
25937;DHT22;13733;51.178;4.450;2023-07-13T06:00:47;17.80;99.90
25937;DHT22;13733;51.178;4.450;2023-07-13T06:03:13;18.00;99.90
25937;DHT22;13733;51.178;4.450;2023-07-13T06:05:40;18.00;99.90
25937;DHT22;13733;51.178;4.450;2023-07-13T06:08:07;18.10;99.90
25937;DHT22;13733;51.178;4.450;2023-07-13T06:10:34;17.90;99.90
25937;DHT22;13733;51.178;4.450;2023-07-13T06:13:00;17.90;99.90
25937;DHT22;13733;51.178;4.450;2023-07-13T06:15:26;18.00;99.90
25937;DHT22;13733;51.178;4.450;2023-07-13T06:17:52;18.00;99.90
25937;DHT22;13733;51.178;4.450;2023-07-13T06:20:17;18.00;99.90
25937;DHT22;13733;51.178;4.450;2023-07-13T06:22:43;18.10;99.90
25937;DHT22;13733;51.178;4.450;2023-07-13T06:25:09;18.00;99.90
25937;DHT22;13733;51.178;4.450;2023-07-13T06:27:35;17.90;99.90
25937;DHT22;13733;51.178;4.450;2023-07-13T06:30:02;17.90;99.90
25937;DHT22;13733;51.178;4.450;2023-07-13T06:32:28;17.90;99.90
25937;DHT22;13733;51.178;4.450;2023-07-13T06:34:54;18.00;99.90
25937;DHT22;13733;51.178;4.450;2023-07-13T06:37:20;18.20;99.90
25937;DHT22;13733;51.178;4.450;2023-07-13T06:39:45;18.50;99.90
25937;DHT22;13733;51.178;4.450;2023-07-13T06:42:11;18.40;99.90
25937;DHT22;13733;51.178;4.450;2023-07-13T06:44:37;18.20;99.90
25937;DHT22;13733;51.178;4.450;2023-07-13T06:47:03;18.20;99.90
25937;DHT22;13733;51.178;4.450;2023-07-13T06:49:29;18.20;99.90
25937;DHT22;13733;51.178;4.450;2023-07-13T06:51:55;18.20;99.90
25937;DHT22;13733;51.178;4.450;2023-07-13T06:54:20;18.40;99.90
25937;DHT22;13733;51.178;4.450;2023-07-13T06:56:46;18.50;99.90
25937;DHT22;13733;51.178;4.450;2023-07-13T06:59:12;18.40;99.90
25937;DHT22;13733;51.178;4.450;2023-07-13T07:01:37;18.40;99.90
25937;DHT22;13733;51.178;4.450;2023-07-13T07:04:04;18.40;99.90
25937;DHT22;13733;51.178;4.450;2023-07-13T07:06:29;18.40;99.90
25937;DHT22;13733;51.178;4.450;2023-07-13T07:08:55;18.40;99.90
25937;DHT22;13733;51.178;4.450;2023-07-13T07:11:25;18.70;99.90
25937;DHT22;13733;51.178;4.450;2023-07-13T07:13:52;18.70;99.90
25937;DHT22;13733;51.178;4.450;2023-07-13T07:16:20;18.80;99.90
25937;DHT22;13733;51.178;4.450;2023-07-13T07:18:47;18.90;99.90
25937;DHT22;13733;51.178;4.450;2023-07-13T07:21:14;18.90;99.90
25937;DHT22;13733;51.178;4.450;2023-07-13T07:23:40;19.10;99.90
25937;DHT22;13733;51.178;4.450;2023-07-13T07:26:06;19.20;99.90
25937;DHT22;13733;51.178;4.450;2023-07-13T07:28:35;18.80;99.90
25937;DHT22;13733;51.178;4.450;2023-07-13T07:31:01;19.00;99.90
25937;DHT22;13733;51.178;4.450;2023-07-13T07:33:27;19.20;99.90
25937;DHT22;13733;51.178;4.450;2023-07-13T07:35:53;19.50;99.90
25937;DHT22;13733;51.178;4.450;2023-07-13T07:38:19;19.50;99.90
25937;DHT22;13733;51.178;4.450;2023-07-13T07:40:46;19.70;99.90
25937;DHT22;13733;51.178;4.450;2023-07-13T07:43:12;19.70;99.90
25937;DHT22;13733;51.178;4.450;2023-07-13T07:45:39;19.80;99.90
25937;DHT22;13733;51.178;4.450;2023-07-13T07:48:06;20.00;99.90
25937;DHT22;13733;51.178;4.450;2023-07-13T07:50:33;20.10;99.90
25937;DHT22;13733;51.178;4.450;2023-07-13T07:52:59;20.40;99.90
25937;DHT22;13733;51.178;4.450;2023-07-13T07:55:27;20.50;99.90
25937;DHT22;13733;51.178;4.450;2023-07-13T07:57:53;20.30;99.90
25937;DHT22;13733;51.178;4.450;2023-07-13T08:00:19;20.50;99.90
25937;DHT22;13733;51.178;4.450;2023-07-13T08:02:46;20.30;99.90
25937;DHT22;13733;51.178;4.450;2023-07-13T08:05:12;20.30;99.90
25937;DHT22;13733;51.178;4.450;2023-07-13T08:07:39;20.30;99.90
25937;DHT22;13733;51.178;4.450;2023-07-13T08:10:06;20.20;99.90
25937;DHT22;13733;51.178;4.450;2023-07-13T08:12:36;20.10;99.90
25937;DHT22;13733;51.178;4.450;2023-07-13T08:15:02;20.40;99.90
25937;DHT22;13733;51.178;4.450;2023-07-13T08:17:28;20.80;99.90
25937;DHT22;13733;51.178;4.450;2023-07-13T08:19:54;21.10;99.90
25937;DHT22;13733;51.178;4.450;2023-07-13T08:22:20;21.40;99.90
25937;DHT22;13733;51.178;4.450;2023-07-13T08:24:47;21.20;99.90
25937;DHT22;13733;51.178;4.450;2023-07-13T08:27:21;21.20;99.90
25937;DHT22;13733;51.178;4.450;2023-07-13T08:29:47;21.30;99.90
25937;DHT22;13733;51.178;4.450;2023-07-13T08:32:14;21.30;99.90
25937;DHT22;13733;51.178;4.450;2023-07-13T08:34:40;21.20;99.90
25937;DHT22;13733;51.178;4.450;2023-07-13T08:37:09;21.10;99.90
25937;DHT22;13733;51.178;4.450;2023-07-13T08:39:35;21.30;99.90
25937;DHT22;13733;51.178;4.450;2023-07-13T08:42:51;21.40;99.90
25937;DHT22;13733;51.178;4.450;2023-07-13T08:44:53;21.60;99.90
25937;DHT22;13733;51.178;4.450;2023-07-13T08:47:24;21.80;99.90
25937;DHT22;13733;51.178;4.450;2023-07-13T08:49:50;22.20;99.90
25937;DHT22;13733;51.178;4.450;2023-07-13T08:52:36;21.80;99.90
25937;DHT22;13733;51.178;4.450;2023-07-13T08:55:21;21.60;99.90
25937;DHT22;13733;51.178;4.450;2023-07-13T08:57:57;21.60;99.90
25937;DHT22;13733;51.178;4.450;2023-07-13T09:00:37;21.60;99.90
25937;DHT22;13733;51.178;4.450;2023-07-13T09:03:05;21.70;99.90
25937;DHT22;13733;51.178;4.450;2023-07-13T09:05:38;22.00;99.90
25937;DHT22;13733;51.178;4.450;2023-07-13T09:08:16;22.20;99.90
25937;DHT22;13733;51.178;4.450;2023-07-13T09:10:58;21.80;99.90
25937;DHT22;13733;51.178;4.450;2023-07-13T09:13:44;22.00;99.90
25937;DHT22;13733;51.178;4.450;2023-07-13T09:16:11;22.30;99.90
25937;DHT22;13733;51.178;4.450;2023-07-13T09:18:44;22.40;99.90
25937;DHT22;13733;51.178;4.450;2023-07-13T09:23:36;23.00;99.90
25937;DHT22;13733;51.178;4.450;2023-07-13T09:26:06;23.10;99.90
25937;DHT22;13733;51.178;4.450;2023-07-13T09:28:39;23.00;99.90
25937;DHT22;13733;51.178;4.450;2023-07-13T09:33:44;22.70;99.90
25937;DHT22;13733;51.178;4.450;2023-07-13T09:36:25;22.70;99.90
25937;DHT22;13733;51.178;4.450;2023-07-13T09:39:03;23.20;99.90
25937;DHT22;13733;51.178;4.450;2023-07-13T09:44:16;23.10;99.90
25937;DHT22;13733;51.178;4.450;2023-07-13T09:47:01;22.50;99.90
25937;DHT22;13733;51.178;4.450;2023-07-13T09:49:35;21.70;99.90
25937;DHT22;13733;51.178;4.450;2023-07-13T09:52:06;20.90;99.90
25937;DHT22;13733;51.178;4.450;2023-07-13T09:54:35;20.40;99.90
25937;DHT22;13733;51.178;4.450;2023-07-13T09:57:03;20.20;99.90
25937;DHT22;13733;51.178;4.450;2023-07-13T09:59:34;20.00;99.90
25937;DHT22;13733;51.178;4.450;2023-07-13T10:02:00;19.90;99.90
25937;DHT22;13733;51.178;4.450;2023-07-13T10:04:33;19.80;99.90
25937;DHT22;13733;51.178;4.450;2023-07-13T10:07:07;19.60;99.90
25937;DHT22;13733;51.178;4.450;2023-07-13T10:09:34;19.60;99.90
25937;DHT22;13733;51.178;4.450;2023-07-13T10:12:01;19.50;99.90
25937;DHT22;13733;51.178;4.450;2023-07-13T10:14:27;19.50;99.90
25937;DHT22;13733;51.178;4.450;2023-07-13T10:17:00;19.60;99.90
25937;DHT22;13733;51.178;4.450;2023-07-13T10:19:34;19.60;99.90
25937;DHT22;13733;51.178;4.450;2023-07-13T10:22:02;19.70;99.90
25937;DHT22;13733;51.178;4.450;2023-07-13T10:24:37;19.90;99.90
25937;DHT22;13733;51.178;4.450;2023-07-13T10:27:12;20.30;99.90
25937;DHT22;13733;51.178;4.450;2023-07-13T10:29:59;20.50;99.90
25937;DHT22;13733;51.178;4.450;2023-07-13T10:32:25;20.90;99.90
25937;DHT22;13733;51.178;4.450;2023-07-13T10:34:51;21.40;99.90
25937;DHT22;13733;51.178;4.450;2023-07-13T10:37:24;21.70;99.90
25937;DHT22;13733;51.178;4.450;2023-07-13T10:39:54;21.90;99.90
25937;DHT22;13733;51.178;4.450;2023-07-13T10:42:31;22.10;99.90
25937;DHT22;13733;51.178;4.450;2023-07-13T10:44:58;22.20;99.90
25937;DHT22;13733;51.178;4.450;2023-07-13T10:47:24;22.20;99.90
25937;DHT22;13733;51.178;4.450;2023-07-13T10:49:54;22.20;99.90
25937;DHT22;13733;51.178;4.450;2023-07-13T10:52:47;22.30;99.90
25937;DHT22;13733;51.178;4.450;2023-07-13T10:55:33;22.50;99.90
25937;DHT22;13733;51.178;4.450;2023-07-13T10:58:11;22.50;99.90
25937;DHT22;13733;51.178;4.450;2023-07-13T11:00:46;22.60;99.90
25937;DHT22;13733;51.178;4.450;2023-07-13T11:03:15;23.00;99.90
25937;DHT22;13733;51.178;4.450;2023-07-13T11:05:43;23.40;99.90
25937;DHT22;13733;51.178;4.450;2023-07-13T11:08:13;23.80;99.90
25937;DHT22;13733;51.178;4.450;2023-07-13T11:25:00;23.60;99.90
25937;DHT22;13733;51.178;4.450;2023-07-13T11:27:38;23.70;99.90
25937;DHT22;13733;51.178;4.450;2023-07-13T11:30:13;23.60;99.90
25937;DHT22;13733;51.178;4.450;2023-07-13T11:32:43;23.30;99.90
25937;DHT22;13733;51.178;4.450;2023-07-13T11:35:22;22.70;99.90
25937;DHT22;13733;51.178;4.450;2023-07-13T11:37:49;22.30;99.90
25937;DHT22;13733;51.178;4.450;2023-07-13T11:40:15;21.90;99.90
25937;DHT22;13733;51.178;4.450;2023-07-13T11:42:41;21.40;99.90
25937;DHT22;13733;51.178;4.450;2023-07-13T11:45:21;20.90;99.90
25937;DHT22;13733;51.178;4.450;2023-07-13T11:47:49;20.70;99.90
25937;DHT22;13733;51.178;4.450;2023-07-13T11:50:23;20.20;99.90
25937;DHT22;13733;51.178;4.450;2023-07-13T11:52:51;19.60;99.90
25937;DHT22;13733;51.178;4.450;2023-07-13T11:55:21;19.40;99.90
25937;DHT22;13733;51.178;4.450;2023-07-13T11:57:56;19.10;99.90
25937;DHT22;13733;51.178;4.450;2023-07-13T12:00:28;18.80;99.90
25937;DHT22;13733;51.178;4.450;2023-07-13T12:02:57;18.70;99.90
25937;DHT22;13733;51.178;4.450;2023-07-13T12:05:26;18.60;99.90
25937;DHT22;13733;51.178;4.450;2023-07-13T12:07:52;18.50;99.90
25937;DHT22;13733;51.178;4.450;2023-07-13T12:12:56;18.20;99.90
25937;DHT22;13733;51.178;4.450;2023-07-13T12:15:23;18.40;99.90
25937;DHT22;13733;51.178;4.450;2023-07-13T12:17:49;18.80;99.90
25937;DHT22;13733;51.178;4.450;2023-07-13T12:20:25;19.00;99.90
25937;DHT22;13733;51.178;4.450;2023-07-13T12:22:52;19.20;99.90
25937;DHT22;13733;51.178;4.450;2023-07-13T12:25:20;19.30;99.90
25937;DHT22;13733;51.178;4.450;2023-07-13T12:27:50;19.30;99.90
25937;DHT22;13733;51.178;4.450;2023-07-13T12:30:27;19.70;99.90
25937;DHT22;13733;51.178;4.450;2023-07-13T12:33:16;20.00;99.90
25937;DHT22;13733;51.178;4.450;2023-07-13T12:35:49;20.30;99.90
25937;DHT22;13733;51.178;4.450;2023-07-13T12:38:16;20.60;99.90
25937;DHT22;13733;51.178;4.450;2023-07-13T12:40:42;20.70;99.90
25937;DHT22;13733;51.178;4.450;2023-07-13T12:43:12;20.70;99.90
25937;DHT22;13733;51.178;4.450;2023-07-13T12:45:40;20.70;99.90
25937;DHT22;13733;51.178;4.450;2023-07-13T12:48:20;20.80;99.90
25937;DHT22;13733;51.178;4.450;2023-07-13T12:50:47;20.50;99.90
25937;DHT22;13733;51.178;4.450;2023-07-13T12:53:18;20.60;99.90
25937;DHT22;13733;51.178;4.450;2023-07-13T12:55:50;20.60;99.90
25937;DHT22;13733;51.178;4.450;2023-07-13T12:58:37;21.20;99.90
25937;DHT22;13733;51.178;4.450;2023-07-13T13:01:05;21.40;99.90
25937;DHT22;13733;51.178;4.450;2023-07-13T13:03:37;21.60;99.90
25937;DHT22;13733;51.178;4.450;2023-07-13T13:06:04;21.50;99.90
25937;DHT22;13733;51.178;4.450;2023-07-13T13:08:35;21.90;99.90
25937;DHT22;13733;51.178;4.450;2023-07-13T13:11:02;22.60;99.90
25937;DHT22;13733;51.178;4.450;2023-07-13T13:13:28;23.30;99.90
25937;DHT22;13733;51.178;4.450;2023-07-13T13:15:54;23.90;99.90
25937;DHT22;13733;51.178;4.450;2023-07-13T13:18:22;24.50;99.90
25937;DHT22;13733;51.178;4.450;2023-07-13T13:20:50;25.00;99.90
25937;DHT22;13733;51.178;4.450;2023-07-13T13:23:18;25.20;99.90
25937;DHT22;13733;51.178;4.450;2023-07-13T13:25:46;25.70;99.90
25937;DHT22;13733;51.178;4.450;2023-07-13T13:28:15;25.60;99.90
25937;DHT22;13733;51.178;4.450;2023-07-13T13:30:42;26.10;99.90
25937;DHT22;13733;51.178;4.450;2023-07-13T13:33:13;27.10;99.90
25937;DHT22;13733;51.178;4.450;2023-07-13T13:35:40;27.40;99.90
25937;DHT22;13733;51.178;4.450;2023-07-13T13:38:17;27.70;99.90
25937;DHT22;13733;51.178;4.450;2023-07-13T13:40:45;28.70;99.90
25937;DHT22;13733;51.178;4.450;2023-07-13T13:43:29;28.90;97.20
25937;DHT22;13733;51.178;4.450;2023-07-13T13:45:57;29.10;95.60
25937;DHT22;13733;51.178;4.450;2023-07-13T13:48:35;27.50;97.10
25937;DHT22;13733;51.178;4.450;2023-07-13T13:51:12;27.10;99.60
25937;DHT22;13733;51.178;4.450;2023-07-13T13:53:38;28.10;97.50
25937;DHT22;13733;51.178;4.450;2023-07-13T13:56:05;29.00;95.00
25937;DHT22;13733;51.178;4.450;2023-07-13T13:58:30;29.10;93.70
25937;DHT22;13733;51.178;4.450;2023-07-13T14:00:56;30.10;91.30
25937;DHT22;13733;51.178;4.450;2023-07-13T14:03:23;29.80;90.00
25937;DHT22;13733;51.178;4.450;2023-07-13T14:05:49;30.30;89.40
25937;DHT22;13733;51.178;4.450;2023-07-13T14:08:18;30.40;87.80
25937;DHT22;13733;51.178;4.450;2023-07-13T14:10:47;29.60;85.50
25937;DHT22;13733;51.178;4.450;2023-07-13T14:13:18;29.10;88.60
25937;DHT22;13733;51.178;4.450;2023-07-13T14:15:45;28.80;89.40
25937;DHT22;13733;51.178;4.450;2023-07-13T14:18:11;28.50;90.50
25937;DHT22;13733;51.178;4.450;2023-07-13T14:20:37;27.40;92.30
25937;DHT22;13733;51.178;4.450;2023-07-13T14:23:03;26.60;94.20
25937;DHT22;13733;51.178;4.450;2023-07-13T14:25:29;26.20;95.70
25937;DHT22;13733;51.178;4.450;2023-07-13T14:27:58;26.30;95.80
25937;DHT22;13733;51.178;4.450;2023-07-13T14:30:33;26.20;96.30
25937;DHT22;13733;51.178;4.450;2023-07-13T14:32:59;25.60;97.20
25937;DHT22;13733;51.178;4.450;2023-07-13T14:35:25;25.60;98.20
25937;DHT22;13733;51.178;4.450;2023-07-13T14:37:51;25.60;98.40
25937;DHT22;13733;51.178;4.450;2023-07-13T14:40:23;25.50;98.80
25937;DHT22;13733;51.178;4.450;2023-07-13T14:42:50;25.70;99.80
25937;DHT22;13733;51.178;4.450;2023-07-13T14:45:18;26.20;99.30
25937;DHT22;13733;51.178;4.450;2023-07-13T14:47:45;26.00;98.50
25937;DHT22;13733;51.178;4.450;2023-07-13T14:52:44;25.30;99.90
25937;DHT22;13733;51.178;4.450;2023-07-13T14:55:15;25.30;99.90
25937;DHT22;13733;51.178;4.450;2023-07-13T14:57:41;25.30;99.90
25937;DHT22;13733;51.178;4.450;2023-07-13T15:00:18;25.50;99.80
25937;DHT22;13733;51.178;4.450;2023-07-13T15:02:53;26.20;98.80
25937;DHT22;13733;51.178;4.450;2023-07-13T15:05:27;27.30;97.40
25937;DHT22;13733;51.178;4.450;2023-07-13T15:07:57;28.40;94.20
25937;DHT22;13733;51.178;4.450;2023-07-13T15:10:28;28.70;92.80
25937;DHT22;13733;51.178;4.450;2023-07-13T15:13:16;28.40;92.50
25937;DHT22;13733;51.178;4.450;2023-07-13T15:15:47;28.00;93.80
25937;DHT22;13733;51.178;4.450;2023-07-13T15:18:15;27.60;93.20
25937;DHT22;13733;51.178;4.450;2023-07-13T15:20:44;27.90;93.90
25937;DHT22;13733;51.178;4.450;2023-07-13T15:23:11;29.30;91.30
25937;DHT22;13733;51.178;4.450;2023-07-13T15:25:38;30.20;85.30
25937;DHT22;13733;51.178;4.450;2023-07-13T15:28:04;30.90;79.30
25937;DHT22;13733;51.178;4.450;2023-07-13T15:30:33;31.70;75.80
25937;DHT22;13733;51.178;4.450;2023-07-13T15:33:37;32.80;68.50
25937;DHT22;13733;51.178;4.450;2023-07-13T15:35:56;33.40;62.90
25937;DHT22;13733;51.178;4.450;2023-07-13T15:38:29;32.10;63.90
25937;DHT22;13733;51.178;4.450;2023-07-13T15:40:55;30.80;67.00
25937;DHT22;13733;51.178;4.450;2023-07-13T15:43:22;29.60;71.30
25937;DHT22;13733;51.178;4.450;2023-07-13T15:45:48;29.20;73.40
25937;DHT22;13733;51.178;4.450;2023-07-13T15:48:19;28.80;73.10
25937;DHT22;13733;51.178;4.450;2023-07-13T15:50:54;28.50;75.40
25937;DHT22;13733;51.178;4.450;2023-07-13T15:53:23;28.30;77.00
25937;DHT22;13733;51.178;4.450;2023-07-13T15:55:50;28.10;78.90
25937;DHT22;13733;51.178;4.450;2023-07-13T15:58:17;28.40;78.10
25937;DHT22;13733;51.178;4.450;2023-07-13T16:00:44;28.40;78.40
25937;DHT22;13733;51.178;4.450;2023-07-13T16:03:10;28.30;76.60
25937;DHT22;13733;51.178;4.450;2023-07-13T16:05:37;28.40;76.50
25937;DHT22;13733;51.178;4.450;2023-07-13T16:08:09;28.40;76.50